createdAt,value
2023-02-02T00:00:01.963Z,97835.72
2023-02-02T00:11:24.250Z,97839.10
2023-02-02T00:22:04.375Z,97839.96
2023-02-02T00:32:33.569Z,97850.33
2023-02-02T00:43:01.925Z,97862.52
2023-02-02T00:53:30.539Z,97870.76
2023-02-02T01:03:59.270Z,97864.31
2023-02-02T01:14:27.310Z,97867.92
2023-02-02T01:24:54.087Z,97878.71
2023-02-02T01:35:23.219Z,97881.25
2023-02-02T01:45:52.156Z,97889.64
2023-02-02T01:56:20.457Z,97890.14
2023-02-02T02:06:51.408Z,97886.99
2023-02-02T02:17:38.259Z,97894.81
2023-02-02T02:28:35.566Z,97904.93
2023-02-02T02:39:11.973Z,97909.84
2023-02-02T02:49:47.060Z,97920.88
2023-02-02T03:00:28.138Z,97933.73
2023-02-02T03:10:57.951Z,97939.81
2023-02-02T03:21:25.523Z,97942.90
2023-02-02T03:31:53.303Z,97947.09
2023-02-02T03:42:21.019Z,97945.95
2023-02-02T03:52:48.759Z,97950.20
2023-02-02T04:03:17.101Z,97955.17
2023-02-02T04:13:44.682Z,97951.30
2023-02-02T04:24:16.853Z,97945.70
2023-02-02T04:34:44.458Z,97936.27
2023-02-02T04:45:13.176Z,97933.82
2023-02-02T04:55:41.318Z,97926.86
2023-02-02T05:06:10.058Z,97931.77
2023-02-02T05:16:39.748Z,97934.18
2023-02-02T05:27:08.099Z,97938.08
2023-02-02T05:37:36.313Z,97926.34
2023-02-02T05:48:04.607Z,97921.05
2023-02-02T05:58:32.863Z,97921.05
2023-02-02T06:09:01.076Z,97926.76
2023-02-02T06:19:29.420Z,97919.36
2023-02-02T06:29:57.569Z,97917.77
2023-02-02T06:40:25.742Z,97924.84
2023-02-02T06:50:54.378Z,97942.35
2023-02-02T07:01:22.263Z,97950.09
2023-02-02T07:11:51.394Z,97942.01
2023-02-02T07:22:20.385Z,97938.99
2023-02-02T07:32:48.920Z,97932.21
2023-02-02T07:43:16.640Z,97938.48
2023-02-02T07:53:48.646Z,97945.02
2023-02-02T08:04:17.401Z,97926.04
2023-02-02T08:14:43.357Z,97938.19
2023-02-02T08:25:12.023Z,97947.05
2023-02-02T08:35:43.903Z,97958.14
2023-02-02T08:46:14.606Z,97948.45
2023-02-02T08:56:43.022Z,97950.89
2023-02-02T09:07:11.311Z,97968.42
2023-02-02T09:17:39.634Z,98008.27
2023-02-02T09:28:07.841Z,98015.80
2023-02-02T09:38:35.585Z,98019.73
2023-02-02T09:49:07.845Z,98025.52
2023-02-02T09:59:41.703Z,98025.64
2023-02-02T10:10:18.159Z,98035.34
2023-02-02T10:20:52.316Z,98035.10
2023-02-02T10:31:30.995Z,98047.23
2023-02-02T10:42:17.571Z,98052.08
2023-02-02T10:52:49.853Z,98053.19
2023-02-02T11:03:20.342Z,98055.27
2023-02-02T11:13:51.958Z,98074.83
2023-02-02T11:24:25.899Z,98083.13
2023-02-02T11:35:15.839Z,98094.85
2023-02-02T11:45:45.682Z,98096.42
2023-02-02T11:56:22.258Z,98104.70
2023-02-02T12:06:50.501Z,98129.55
2023-02-02T12:17:31.826Z,98145.29
2023-02-02T12:28:06.401Z,98158.98
2023-02-02T12:38:55.481Z,98167.82
2023-02-02T12:49:45.620Z,98178.55
2023-02-02T13:00:39.657Z,98196.56
2023-02-02T13:11:30.143Z,98203.41
2023-02-02T13:22:00.273Z,98205.06
2023-02-02T13:32:31.628Z,98211.50
2023-02-02T13:43:10.155Z,98222.33
2023-02-02T13:53:53.618Z,98233.73
2023-02-02T14:04:28.732Z,98241.89
2023-02-02T14:14:56.381Z,98272.08
2023-02-02T14:26:05.326Z,98285.72
2023-02-02T14:36:33.439Z,98302.83
2023-02-02T14:47:00.192Z,98317.69
2023-02-02T14:57:32.629Z,98336.77
2023-02-02T15:08:23.460Z,98354.07
2023-02-02T15:18:57.714Z,98366.45
2023-02-02T15:29:43.888Z,98396.80
2023-02-02T15:40:21.688Z,98417.65
2023-02-02T15:50:54.721Z,98448.86
2023-02-02T16:01:25.331Z,98468.21
2023-02-02T16:11:53.437Z,98499.42
2023-02-02T16:22:25.504Z,98522.84
2023-02-02T16:32:53.105Z,98542.60
2023-02-02T16:43:22.193Z,98562.14
2023-02-02T16:53:58.031Z,98575.11
2023-02-02T17:04:29.074Z,98604.10
2023-02-02T17:14:59.485Z,98643.73
2023-02-02T17:25:32.545Z,98658.99
2023-02-02T17:36:00.051Z,98668.17
2023-02-02T17:46:31.135Z,98692.13
2023-02-02T17:56:58.736Z,98710.48
2023-02-02T18:07:26.622Z,98729.48
2023-02-02T18:17:55.265Z,98761.05
2023-02-02T18:28:22.959Z,98785.58
2023-02-02T18:38:52.878Z,98808.85
2023-02-02T18:49:20.645Z,98827.55
2023-02-02T18:59:48.357Z,98848.45
2023-02-02T19:10:17.354Z,98868.96
2023-02-02T19:20:45.825Z,98897.41
2023-02-02T19:31:17.229Z,98921.54
2023-02-02T19:41:45.084Z,98941.71
2023-02-02T19:52:19.527Z,98958.75
2023-02-02T20:02:57.341Z,98976.31
2023-02-02T20:13:35.151Z,98991.95
2023-02-02T20:24:02.889Z,99001.59
2023-02-02T20:34:33.537Z,99015.79
2023-02-02T20:45:01.110Z,99027.86
2023-02-02T20:55:30.093Z,99046.21
2023-02-02T21:05:58.347Z,99072.64
2023-02-02T21:16:26.099Z,99095.34
2023-02-02T21:26:54.282Z,99102.52
2023-02-02T21:37:20.786Z,99114.77
2023-02-02T21:47:52.987Z,99127.70
2023-02-02T21:58:26.788Z,99134.98
2023-02-02T22:08:55.854Z,99144.48
2023-02-02T22:19:35.771Z,99159.45
2023-02-02T22:30:15.427Z,99178.27
2023-02-02T22:40:43.283Z,99178.80
2023-02-02T22:51:11.067Z,99192.63
2023-02-02T23:01:39.325Z,99200.70
2023-02-02T23:12:08.110Z,99215.56
2023-02-02T23:22:36.312Z,99222.61
2023-02-02T23:33:04.578Z,99225.97
2023-02-02T23:43:32.944Z,99238.55
2023-02-02T23:54:01.857Z,99256.29
